Senin
| Ora | Descriere | Temp | Se simte | Precipitatii | Umiditate | Vant |
|---|---|---|---|---|---|---|
| 00:00 | Senin | 12.3° | 10.6° | 0% | 60% | S 15.8 KM/H |
| 01:00 | Senin | 8.2° | 10.2° | 0% | 87% | S 14.8 KM/H |
| 02:00 | Senin | 11.6° | 10° | 0% | 63% | S 13.7 KM/H |
| 03:00 | Senin | 11.4° | 9.9° | 0% | 63% | S 12.2 KM/H |
| 04:00 | Senin | 11.8° | 10.7° | 0% | 61% | S 10.4 KM/H |
| 05:00 | Senin | 12.1° | 11.4° | 0% | 60% | S 8.3 KM/H |
| 06:00 | Senin | 12.1° | 11.5° | 0% | 59% | S 7.9 KM/H |
| 07:00 | Senin | 12.7° | 12.1° | 0% | 59% | S 8.6 KM/H |
| 08:00 | Senin | 14.4° | 13.9° | 0% | 53% | S 9.7 KM/H |
| 09:00 | Senin | 16.4° | 16.4° | 0% | 45% | S 10.4 KM/H |
| 10:00 | Senin | 18.3° | 18.3° | 0% | 39% | S 11.9 KM/H |
| 11:00 | Senin | 19.9° | 19.9° | 0% | 36% | S 12.6 KM/H |
| 12:00 | Senin | 21.2° | 21.2° | 0% | 34% | S 12.6 KM/H |
| 13:00 | Senin | 22.1° | 23.6° | 0% | 33% | S 12.6 KM/H |
| 14:00 | Senin | 22.8° | 23.8° | 0% | 33% | S 13 KM/H |
| 15:00 | Senin | 23.2° | 24° | 0% | 33% | S 13.3 KM/H |
| 16:00 | Senin | 23.3° | 24.1° | 0% | 34% | S 14 KM/H |
| 17:00 | Senin | 23° | 24.1° | 0% | 35% | S 16.2 KM/H |
| 18:00 | Senin | 22° | 22° | 0% | 39% | S 19.4 KM/H |
| 19:00 | Senin | 19.9° | 19.9° | 0% | 48% | SSE 23 KM/H |
| 20:00 | Senin | 17.1° | 17.1° | 0% | 55% | SSE 21.6 KM/H |
| 21:00 | Senin | 15.1° | 15.1° | 0% | 58% | SSE 18.4 KM/H |
| 22:00 | Senin | 13.9° | 12.7° | 0% | 59% | SSE 15.5 KM/H |
| 23:00 | Senin | 13.2° | 11.9° | 0% | 60% | SSE 14.4 KM/H |